Call, TX (75933)

3:47 PM CDT on July 26, 2016 (GMT -0500)
RAWS | | Change Station

Elev 299 ft 30.43 °N, 93.88 °W | Updated 42 minutes ago

Mostly Cloudy
Mostly Cloudy
90.0 °F
Feels Like 102 °F
N
2.0
Wind Variable Wind from East
Gusts 10.0 mph

Today
High -- | Low -- °F
--% Chance of Precip.
Yesterday
High -- | Low -- °F
Precip. -- in
Pressure 29.89 in
Visibility 10.0 miles
Clouds Scattered Clouds 3200 ft
Scattered Clouds 4300 ft
Mostly Cloudy 7000 ft
Heat Index 102 °F
Dew Point 76.0 °F
Humidity 64%
Rainfall in
Snow Depth Not available.
6:29 AM 8:13 PM
Waning Gibbous, 51% visible
METAR K5R8 262035Z AUTO 00000KT 10SM SCT032 SCT043 BKN070 31/24 A2989 RMK AO2 LTG DSNT E T03050237
Pressure 29.89 in
Visibility 10.0 miles
Clouds Scattered Clouds 3200 ft
Scattered Clouds 4300 ft
Mostly Cloudy 7000 ft
Heat Index 102 °F
Dew Point 76.0 °F
Humidity 64%
Rainfall in
Snow Depth Not available.
6:29 AM 8:13 PM
Waning Gibbous, 51% visible
METAR K5R8 262035Z AUTO 00000KT 10SM SCT032 SCT043 BKN070 31/24 A2989 RMK AO2 LTG DSNT E T03050237

10-Day Weather Forecast

Almanac

Astronomy

Jul. 26, 2016 Rise Set
Actual Time
Civil Twilight
Nautical Twilight
Astronomical Twilight
Moon
Length of Visible Light
Length of Day
Tomorrow will be .
, % of the Moon is Illuminated

Today's Extremes

State Highs State Lows

Community

WunderPhotos

Upload Photos

1,927,678 photos uploaded!

WunderBlog® & News

Nearby

Air Quality

  Air Quality AQ Index Pollutant
Not available.

Snow Depth

Station Depth Elevation

Earthquake Activity

City Distance Mag. Time & Date
Minimum magnitude displayed is 2.5.

Coastal Water Temperatures

Place Temperature

Stations

Nearby Weather Stations

Station Location Temp. Windchill Dew Point Humidity Wind Precip. Elev Updated Type
                   

Watches & Warnings

There are currently no watches in effect.